sensor_id;sensor_type;location;lat;lon;timestamp;temperature;humidity
64599;SHT31;51008;51.504;11.548;2023-07-09T00:02:50;17.77;66.65
64599;SHT31;51008;51.504;11.548;2023-07-09T00:07:51;17.69;67.07
64599;SHT31;51008;51.504;11.548;2023-07-09T00:12:52;17.63;66.90
64599;SHT31;51008;51.504;11.548;2023-07-09T00:17:53;17.60;67.29
64599;SHT31;51008;51.504;11.548;2023-07-09T00:22:54;17.59;67.35
64599;SHT31;51008;51.504;11.548;2023-07-09T00:27:55;17.55;67.30
64599;SHT31;51008;51.504;11.548;2023-07-09T00:32:57;17.49;67.61
64599;SHT31;51008;51.504;11.548;2023-07-09T00:37:58;17.49;67.69
64599;SHT31;51008;51.504;11.548;2023-07-09T00:42:59;17.43;68.60
64599;SHT31;51008;51.504;11.548;2023-07-09T00:48:03;17.39;68.06
64599;SHT31;51008;51.504;11.548;2023-07-09T00:53:12;17.36;68.31
64599;SHT31;51008;51.504;11.548;2023-07-09T00:58:15;17.30;68.13
64599;SHT31;51008;51.504;11.548;2023-07-09T01:03:27;17.22;68.22
64599;SHT31;51008;51.504;11.548;2023-07-09T01:08:31;17.16;68.95
64599;SHT31;51008;51.504;11.548;2023-07-09T01:13:33;17.07;68.89
64599;SHT31;51008;51.504;11.548;2023-07-09T01:18:34;17.01;70.01
64599;SHT31;51008;51.504;11.548;2023-07-09T01:23:35;16.95;69.38
64599;SHT31;51008;51.504;11.548;2023-07-09T01:28:36;16.91;69.77
64599;SHT31;51008;51.504;11.548;2023-07-09T01:33:37;16.85;69.99
64599;SHT31;51008;51.504;11.548;2023-07-09T01:38:39;16.78;70.38
64599;SHT31;51008;51.504;11.548;2023-07-09T01:43:42;16.70;70.51
64599;SHT31;51008;51.504;11.548;2023-07-09T01:48:43;16.61;70.84
64599;SHT31;51008;51.504;11.548;2023-07-09T01:53:44;16.53;71.13
64599;SHT31;51008;51.504;11.548;2023-07-09T01:58:45;16.46;71.14
64599;SHT31;51008;51.504;11.548;2023-07-09T02:03:46;16.39;71.52
64599;SHT31;51008;51.504;11.548;2023-07-09T02:08:47;16.30;71.97
64599;SHT31;51008;51.504;11.548;2023-07-09T02:13:48;16.26;72.36
64599;SHT31;51008;51.504;11.548;2023-07-09T02:18:49;16.22;72.82
64599;SHT31;51008;51.504;11.548;2023-07-09T02:23:50;16.16;72.75
64599;SHT31;51008;51.504;11.548;2023-07-09T02:28:51;16.05;72.76
64599;SHT31;51008;51.504;11.548;2023-07-09T02:33:52;16.04;73.09
64599;SHT31;51008;51.504;11.548;2023-07-09T02:38:53;15.95;73.37
64599;SHT31;51008;51.504;11.548;2023-07-09T02:43:54;15.94;73.43
64599;SHT31;51008;51.504;11.548;2023-07-09T02:48:55;15.91;74.21
64599;SHT31;51008;51.504;11.548;2023-07-09T02:53:58;15.91;74.00
64599;SHT31;51008;51.504;11.548;2023-07-09T02:58:59;15.87;73.86
64599;SHT31;51008;51.504;11.548;2023-07-09T03:04:01;15.78;74.08
64599;SHT31;51008;51.504;11.548;2023-07-09T03:09:04;15.78;74.13
64599;SHT31;51008;51.504;11.548;2023-07-09T03:14:05;15.76;74.24
64599;SHT31;51008;51.504;11.548;2023-07-09T03:19:06;15.68;74.40
64599;SHT31;51008;51.504;11.548;2023-07-09T03:24:07;15.73;74.63
64599;SHT31;51008;51.504;11.548;2023-07-09T03:29:08;15.77;74.73
64599;SHT31;51008;51.504;11.548;2023-07-09T03:34:09;15.85;74.76
64599;SHT31;51008;51.504;11.548;2023-07-09T03:39:10;15.84;74.80
64599;SHT31;51008;51.504;11.548;2023-07-09T03:44:11;15.90;74.95
64599;SHT31;51008;51.504;11.548;2023-07-09T03:49:12;16.04;74.54
64599;SHT31;51008;51.504;11.548;2023-07-09T03:54:13;16.25;74.32
64599;SHT31;51008;51.504;11.548;2023-07-09T03:59:14;16.59;73.88
64599;SHT31;51008;51.504;11.548;2023-07-09T04:04:15;17.09;73.32
64599;SHT31;51008;51.504;11.548;2023-07-09T04:09:16;17.50;72.43
64599;SHT31;51008;51.504;11.548;2023-07-09T04:14:17;17.95;71.70
64599;SHT31;51008;51.504;11.548;2023-07-09T04:19:18;18.26;71.50
64599;SHT31;51008;51.504;11.548;2023-07-09T04:24:19;18.63;70.46
64599;SHT31;51008;51.504;11.548;2023-07-09T04:29:20;18.99;69.32
64599;SHT31;51008;51.504;11.548;2023-07-09T04:34:21;19.30;68.68
64599;SHT31;51008;51.504;11.548;2023-07-09T04:39:22;19.74;68.18
64599;SHT31;51008;51.504;11.548;2023-07-09T04:44:23;20.12;66.64
64599;SHT31;51008;51.504;11.548;2023-07-09T04:49:24;20.64;67.86
64599;SHT31;51008;51.504;11.548;2023-07-09T04:54:26;21.06;65.51
64599;SHT31;51008;51.504;11.548;2023-07-09T04:59:27;21.48;65.15
64599;SHT31;51008;51.504;11.548;2023-07-09T05:04:28;21.82;63.37
64599;SHT31;51008;51.504;11.548;2023-07-09T05:09:29;22.16;61.70
64599;SHT31;51008;51.504;11.548;2023-07-09T05:14:30;22.30;60.36
64599;SHT31;51008;51.504;11.548;2023-07-09T05:19:31;22.55;60.16
64599;SHT31;51008;51.504;11.548;2023-07-09T05:24:32;22.72;59.56
64599;SHT31;51008;51.504;11.548;2023-07-09T05:29:33;22.81;58.74
64599;SHT31;51008;51.504;11.548;2023-07-09T05:34:34;22.81;57.63
64599;SHT31;51008;51.504;11.548;2023-07-09T05:39:35;22.94;57.67
64599;SHT31;51008;51.504;11.548;2023-07-09T05:44:36;22.94;57.28
64599;SHT31;51008;51.504;11.548;2023-07-09T05:49:38;22.78;57.95
64599;SHT31;51008;51.504;11.548;2023-07-09T05:54:39;22.89;57.00
64599;SHT31;51008;51.504;11.548;2023-07-09T05:59:40;23.03;58.87
64599;SHT31;51008;51.504;11.548;2023-07-09T06:04:42;23.26;57.39
64599;SHT31;51008;51.504;11.548;2023-07-09T06:09:43;23.31;55.24
64599;SHT31;51008;51.504;11.548;2023-07-09T06:14:44;23.24;56.11
64599;SHT31;51008;51.504;11.548;2023-07-09T06:19:45;23.37;56.04
64599;SHT31;51008;51.504;11.548;2023-07-09T06:24:46;23.82;54.58
64599;SHT31;51008;51.504;11.548;2023-07-09T06:29:47;23.93;52.78
64599;SHT31;51008;51.504;11.548;2023-07-09T06:34:48;24.21;53.62
64599;SHT31;51008;51.504;11.548;2023-07-09T06:39:49;24.29;52.68
64599;SHT31;51008;51.504;11.548;2023-07-09T06:44:50;24.47;52.38
64599;SHT31;51008;51.504;11.548;2023-07-09T06:49:51;24.60;52.29
64599;SHT31;51008;51.504;11.548;2023-07-09T06:54:51;25.00;52.38
64599;SHT31;51008;51.504;11.548;2023-07-09T06:59:52;25.16;51.49
64599;SHT31;51008;51.504;11.548;2023-07-09T07:04:53;25.48;50.48
64599;SHT31;51008;51.504;11.548;2023-07-09T07:09:54;25.71;49.52
64599;SHT31;51008;51.504;11.548;2023-07-09T07:14:56;26.07;49.61
64599;SHT31;51008;51.504;11.548;2023-07-09T07:19:56;26.45;48.35
64599;SHT31;51008;51.504;11.548;2023-07-09T07:24:57;26.98;48.27
64599;SHT31;51008;51.504;11.548;2023-07-09T07:29:58;27.50;47.10
64599;SHT31;51008;51.504;11.548;2023-07-09T07:34:59;27.66;47.37
64599;SHT31;51008;51.504;11.548;2023-07-09T07:40:01;28.09;47.50
64599;SHT31;51008;51.504;11.548;2023-07-09T07:45:03;28.39;46.15
64599;SHT31;51008;51.504;11.548;2023-07-09T07:50:05;28.66;44.12
64599;SHT31;51008;51.504;11.548;2023-07-09T07:55:07;29.02;43.66
64599;SHT31;51008;51.504;11.548;2023-07-09T08:00:09;29.64;42.72
64599;SHT31;51008;51.504;11.548;2023-07-09T08:05:15;30.10;39.96
64599;SHT31;51008;51.504;11.548;2023-07-09T08:10:17;30.58;39.84
64599;SHT31;51008;51.504;11.548;2023-07-09T08:15:18;30.99;40.90
64599;SHT31;51008;51.504;11.548;2023-07-09T08:20:19;31.31;38.84
64599;SHT31;51008;51.504;11.548;2023-07-09T08:25:19;31.89;38.02
64599;SHT31;51008;51.504;11.548;2023-07-09T08:30:20;31.76;37.92
64599;SHT31;51008;51.504;11.548;2023-07-09T08:35:21;31.99;39.62
64599;SHT31;51008;51.504;11.548;2023-07-09T08:40:23;32.35;39.09
64599;SHT31;51008;51.504;11.548;2023-07-09T08:45:36;32.79;37.91
64599;SHT31;51008;51.504;11.548;2023-07-09T08:50:47;33.24;37.17
64599;SHT31;51008;51.504;11.548;2023-07-09T08:55:50;33.29;35.93
64599;SHT31;51008;51.504;11.548;2023-07-09T09:00:57;33.04;34.05
64599;SHT31;51008;51.504;11.548;2023-07-09T09:05:58;33.48;36.06
64599;SHT31;51008;51.504;11.548;2023-07-09T09:11:12;33.86;33.47
64599;SHT31;51008;51.504;11.548;2023-07-09T09:16:22;34.44;32.60
64599;SHT31;51008;51.504;11.548;2023-07-09T09:21:36;34.64;33.39
64599;SHT31;51008;51.504;11.548;2023-07-09T09:26:38;35.05;30.79
64599;SHT31;51008;51.504;11.548;2023-07-09T09:31:45;34.21;31.33
64599;SHT31;51008;51.504;11.548;2023-07-09T09:36:47;34.51;33.08
64599;SHT31;51008;51.504;11.548;2023-07-09T09:41:48;35.31;29.57
64599;SHT31;51008;51.504;11.548;2023-07-09T09:46:49;35.58;28.69
64599;SHT31;51008;51.504;11.548;2023-07-09T09:51:50;35.81;29.56
64599;SHT31;51008;51.504;11.548;2023-07-09T09:56:52;35.99;30.03
64599;SHT31;51008;51.504;11.548;2023-07-09T10:02:02;36.36;30.31
64599;SHT31;51008;51.504;11.548;2023-07-09T10:07:07;35.84;30.22
64599;SHT31;51008;51.504;11.548;2023-07-09T10:12:27;35.68;30.55
64599;SHT31;51008;51.504;11.548;2023-07-09T10:17:38;36.26;30.09
64599;SHT31;51008;51.504;11.548;2023-07-09T10:22:54;36.20;29.43
64599;SHT31;51008;51.504;11.548;2023-07-09T10:33:25;35.95;29.27
64599;SHT31;51008;51.504;11.548;2023-07-09T10:38:47;35.58;29.87
64599;SHT31;51008;51.504;11.548;2023-07-09T10:49:01;36.63;28.14
64599;SHT31;51008;51.504;11.548;2023-07-09T10:59:28;36.86;27.46
64599;SHT31;51008;51.504;11.548;2023-07-09T11:04:34;37.00;27.08
64599;SHT31;51008;51.504;11.548;2023-07-09T11:09:39;37.16;27.01
64599;SHT31;51008;51.504;11.548;2023-07-09T11:14:45;37.37;27.80
64599;SHT31;51008;51.504;11.548;2023-07-09T11:19:54;35.89;28.46
64599;SHT31;51008;51.504;11.548;2023-07-09T11:25:13;36.45;26.77
64599;SHT31;51008;51.504;11.548;2023-07-09T11:30:26;36.79;26.98
64599;SHT31;51008;51.504;11.548;2023-07-09T11:35:41;35.09;28.75
64599;SHT31;51008;51.504;11.548;2023-07-09T11:40:49;35.96;28.53
64599;SHT31;51008;51.504;11.548;2023-07-09T11:45:50;37.30;27.20
64599;SHT31;51008;51.504;11.548;2023-07-09T11:50:52;37.20;26.71
64599;SHT31;51008;51.504;11.548;2023-07-09T11:55:54;36.16;28.22
64599;SHT31;51008;51.504;11.548;2023-07-09T12:00:57;37.06;27.54
64599;SHT31;51008;51.504;11.548;2023-07-09T12:06:04;35.74;29.10
64599;SHT31;51008;51.504;11.548;2023-07-09T12:11:16;35.72;28.66
64599;SHT31;51008;51.504;11.548;2023-07-09T12:16:36;35.62;28.41
64599;SHT31;51008;51.504;11.548;2023-07-09T12:21:39;35.43;29.26
64599;SHT31;51008;51.504;11.548;2023-07-09T12:26:40;36.44;28.64
64599;SHT31;51008;51.504;11.548;2023-07-09T12:31:41;36.40;27.89
64599;SHT31;51008;51.504;11.548;2023-07-09T12:36:49;35.75;28.09
64599;SHT31;51008;51.504;11.548;2023-07-09T12:41:54;35.59;28.94
64599;SHT31;51008;51.504;11.548;2023-07-09T12:46:55;36.50;27.74
64599;SHT31;51008;51.504;11.548;2023-07-09T12:51:58;36.70;28.19
64599;SHT31;51008;51.504;11.548;2023-07-09T12:57:05;35.36;29.55
64599;SHT31;51008;51.504;11.548;2023-07-09T13:02:18;36.43;27.73
64599;SHT31;51008;51.504;11.548;2023-07-09T13:07:27;36.37;27.68
64599;SHT31;51008;51.504;11.548;2023-07-09T13:12:32;35.61;29.88
64599;SHT31;51008;51.504;11.548;2023-07-09T13:17:33;35.57;29.21
64599;SHT31;51008;51.504;11.548;2023-07-09T13:22:34;35.43;30.14
64599;SHT31;51008;51.504;11.548;2023-07-09T13:27:36;36.43;28.77
64599;SHT31;51008;51.504;11.548;2023-07-09T13:32:38;37.06;28.28
64599;SHT31;51008;51.504;11.548;2023-07-09T13:37:39;37.43;27.23
64599;SHT31;51008;51.504;11.548;2023-07-09T13:42:42;37.56;28.25
64599;SHT31;51008;51.504;11.548;2023-07-09T13:47:43;37.43;26.19
64599;SHT31;51008;51.504;11.548;2023-07-09T13:52:44;36.96;27.87
64599;SHT31;51008;51.504;11.548;2023-07-09T13:57:45;36.48;28.49
64599;SHT31;51008;51.504;11.548;2023-07-09T14:02:46;36.23;28.25
64599;SHT31;51008;51.504;11.548;2023-07-09T14:07:47;37.11;28.69
64599;SHT31;51008;51.504;11.548;2023-07-09T14:12:48;36.92;27.40
64599;SHT31;51008;51.504;11.548;2023-07-09T14:17:49;35.72;29.74
64599;SHT31;51008;51.504;11.548;2023-07-09T14:22:50;35.50;29.69
64599;SHT31;51008;51.504;11.548;2023-07-09T14:27:53;35.88;30.22
64599;SHT31;51008;51.504;11.548;2023-07-09T14:32:54;36.32;28.78
64599;SHT31;51008;51.504;11.548;2023-07-09T14:37:55;36.88;28.03
64599;SHT31;51008;51.504;11.548;2023-07-09T14:42:56;37.05;27.17
64599;SHT31;51008;51.504;11.548;2023-07-09T14:47:57;36.88;27.87
64599;SHT31;51008;51.504;11.548;2023-07-09T14:52:58;35.89;27.64
64599;SHT31;51008;51.504;11.548;2023-07-09T14:57:59;36.16;27.73
64599;SHT31;51008;51.504;11.548;2023-07-09T15:03:00;36.33;28.56
64599;SHT31;51008;51.504;11.548;2023-07-09T15:08:01;36.67;29.51
64599;SHT31;51008;51.504;11.548;2023-07-09T15:13:18;36.09;28.40
64599;SHT31;51008;51.504;11.548;2023-07-09T15:18:20;35.81;27.58
64599;SHT31;51008;51.504;11.548;2023-07-09T15:23:21;36.03;28.35
64599;SHT31;51008;51.504;11.548;2023-07-09T15:28:22;36.36;28.20
64599;SHT31;51008;51.504;11.548;2023-07-09T15:33:23;35.55;27.93
64599;SHT31;51008;51.504;11.548;2023-07-09T15:38:29;35.17;28.71
64599;SHT31;51008;51.504;11.548;2023-07-09T15:43:31;34.99;29.03
64599;SHT31;51008;51.504;11.548;2023-07-09T15:48:33;35.38;29.26
64599;SHT31;51008;51.504;11.548;2023-07-09T15:53:35;35.14;29.66
64599;SHT31;51008;51.504;11.548;2023-07-09T15:58:44;34.92;29.16
64599;SHT31;51008;51.504;11.548;2023-07-09T16:04:08;35.36;29.04
64599;SHT31;51008;51.504;11.548;2023-07-09T16:09:07;35.47;29.22
64599;SHT31;51008;51.504;11.548;2023-07-09T16:14:32;35.03;28.32
64599;SHT31;51008;51.504;11.548;2023-07-09T16:19:34;35.05;30.08
64599;SHT31;51008;51.504;11.548;2023-07-09T16:24:35;34.55;30.10
64599;SHT31;51008;51.504;11.548;2023-07-09T16:29:36;34.64;30.22
64599;SHT31;51008;51.504;11.548;2023-07-09T16:34:37;34.82;31.95
64599;SHT31;51008;51.504;11.548;2023-07-09T16:39:40;34.82;31.13
64599;SHT31;51008;51.504;11.548;2023-07-09T16:44:41;34.88;30.83
64599;SHT31;51008;51.504;11.548;2023-07-09T16:49:43;34.77;31.33
64599;SHT31;51008;51.504;11.548;2023-07-09T16:54:44;34.44;31.04
64599;SHT31;51008;51.504;11.548;2023-07-09T16:59:45;34.33;34.06
64599;SHT31;51008;51.504;11.548;2023-07-09T17:04:46;34.12;37.21
64599;SHT31;51008;51.504;11.548;2023-07-09T17:09:48;33.86;38.29
64599;SHT31;51008;51.504;11.548;2023-07-09T17:14:49;33.54;40.56
64599;SHT31;51008;51.504;11.548;2023-07-09T17:19:50;33.30;41.22
64599;SHT31;51008;51.504;11.548;2023-07-09T17:24:50;32.93;40.48
64599;SHT31;51008;51.504;11.548;2023-07-09T17:29:51;32.61;43.15
64599;SHT31;51008;51.504;11.548;2023-07-09T17:34:52;32.44;43.00
64599;SHT31;51008;51.504;11.548;2023-07-09T17:39:53;32.09;48.43
64599;SHT31;51008;51.504;11.548;2023-07-09T17:44:54;31.83;46.91
64599;SHT31;51008;51.504;11.548;2023-07-09T17:49:55;31.47;46.58
64599;SHT31;51008;51.504;11.548;2023-07-09T17:54:56;31.26;45.92
64599;SHT31;51008;51.504;11.548;2023-07-09T17:59:57;31.14;49.35
64599;SHT31;51008;51.504;11.548;2023-07-09T18:04:58;30.85;52.43
64599;SHT31;51008;51.504;11.548;2023-07-09T18:09:59;30.47;54.71
64599;SHT31;51008;51.504;11.548;2023-07-09T18:15:00;30.13;55.61
64599;SHT31;51008;51.504;11.548;2023-07-09T18:20:02;30.00;57.29
64599;SHT31;51008;51.504;11.548;2023-07-09T18:25:06;29.82;54.31
64599;SHT31;51008;51.504;11.548;2023-07-09T18:30:22;29.61;58.44
64599;SHT31;51008;51.504;11.548;2023-07-09T18:35:28;29.31;59.37
64599;SHT31;51008;51.504;11.548;2023-07-09T18:40:34;29.02;61.14
64599;SHT31;51008;51.504;11.548;2023-07-09T18:45:36;28.74;58.52
64599;SHT31;51008;51.504;11.548;2023-07-09T18:50:37;28.41;60.26
64599;SHT31;51008;51.504;11.548;2023-07-09T18:55:38;28.07;60.95
64599;SHT31;51008;51.504;11.548;2023-07-09T19:00:39;27.90;61.05
64599;SHT31;51008;51.504;11.548;2023-07-09T19:05:42;27.62;62.05
64599;SHT31;51008;51.504;11.548;2023-07-09T19:10:43;27.37;61.43
64599;SHT31;51008;51.504;11.548;2023-07-09T19:15:46;27.16;59.40
64599;SHT31;51008;51.504;11.548;2023-07-09T19:20:47;26.92;59.37
64599;SHT31;51008;51.504;11.548;2023-07-09T19:25:49;26.72;59.23
64599;SHT31;51008;51.504;11.548;2023-07-09T19:30:52;26.57;59.49
64599;SHT31;51008;51.504;11.548;2023-07-09T19:35:54;26.37;60.07
64599;SHT31;51008;51.504;11.548;2023-07-09T19:40:55;26.23;59.99
64599;SHT31;51008;51.504;11.548;2023-07-09T19:45:56;26.04;59.66
64599;SHT31;51008;51.504;11.548;2023-07-09T19:50:57;25.82;60.07
64599;SHT31;51008;51.504;11.548;2023-07-09T19:55:58;25.62;59.39
64599;SHT31;51008;51.504;11.548;2023-07-09T20:00:59;25.45;61.10
64599;SHT31;51008;51.504;11.548;2023-07-09T20:06:00;25.33;59.53
64599;SHT31;51008;51.504;11.548;2023-07-09T20:11:01;25.22;60.17
64599;SHT31;51008;51.504;11.548;2023-07-09T20:16:03;25.02;60.89
64599;SHT31;51008;51.504;11.548;2023-07-09T20:21:16;24.90;60.77
64599;SHT31;51008;51.504;11.548;2023-07-09T20:26:18;24.79;62.07
64599;SHT31;51008;51.504;11.548;2023-07-09T20:31:22;24.65;62.71
64599;SHT31;51008;51.504;11.548;2023-07-09T20:36:23;24.53;62.87
64599;SHT31;51008;51.504;11.548;2023-07-09T20:41:24;24.50;61.52
64599;SHT31;51008;51.504;11.548;2023-07-09T20:46:25;24.43;61.38
64599;SHT31;51008;51.504;11.548;2023-07-09T20:51:26;24.26;62.93
64599;SHT31;51008;51.504;11.548;2023-07-09T20:56:27;24.19;62.23
64599;SHT31;51008;51.504;11.548;2023-07-09T21:01:28;24.09;62.96
64599;SHT31;51008;51.504;11.548;2023-07-09T21:06:29;24.08;62.25
64599;SHT31;51008;51.504;11.548;2023-07-09T21:11:30;24.08;62.22
64599;SHT31;51008;51.504;11.548;2023-07-09T21:16:31;24.02;62.27
64599;SHT31;51008;51.504;11.548;2023-07-09T21:21:32;24.02;62.79
64599;SHT31;51008;51.504;11.548;2023-07-09T21:26:33;23.96;62.73
64599;SHT31;51008;51.504;11.548;2023-07-09T21:31:34;23.89;62.19
64599;SHT31;51008;51.504;11.548;2023-07-09T21:36:35;23.85;60.70
64599;SHT31;51008;51.504;11.548;2023-07-09T21:41:36;23.79;60.37
64599;SHT31;51008;51.504;11.548;2023-07-09T21:46:37;23.88;59.51
64599;SHT31;51008;51.504;11.548;2023-07-09T21:51:39;23.96;62.51
64599;SHT31;51008;51.504;11.548;2023-07-09T21:56:40;23.98;62.60
64599;SHT31;51008;51.504;11.548;2023-07-09T22:01:41;23.95;61.86
64599;SHT31;51008;51.504;11.548;2023-07-09T22:06:43;23.90;61.38
64599;SHT31;51008;51.504;11.548;2023-07-09T22:11:44;23.99;58.75
64599;SHT31;51008;51.504;11.548;2023-07-09T22:16:46;24.16;58.21
64599;SHT31;51008;51.504;11.548;2023-07-09T22:21:47;24.14;60.43
64599;SHT31;51008;51.504;11.548;2023-07-09T22:26:48;24.19;58.75
64599;SHT31;51008;51.504;11.548;2023-07-09T22:31:49;24.51;55.83
64599;SHT31;51008;51.504;11.548;2023-07-09T22:36:50;24.89;60.74
64599;SHT31;51008;51.504;11.548;2023-07-09T22:41:51;23.64;75.94
64599;SHT31;51008;51.504;11.548;2023-07-09T22:46:52;22.54;81.75
64599;SHT31;51008;51.504;11.548;2023-07-09T22:51:54;22.06;84.88
64599;SHT31;51008;51.504;11.548;2023-07-09T22:56:55;21.75;85.95
64599;SHT31;51008;51.504;11.548;2023-07-09T23:01:56;21.64;86.98
64599;SHT31;51008;51.504;11.548;2023-07-09T23:06:57;21.62;86.50
64599;SHT31;51008;51.504;11.548;2023-07-09T23:11:58;21.64;86.75
64599;SHT31;51008;51.504;11.548;2023-07-09T23:16:59;21.55;86.80
64599;SHT31;51008;51.504;11.548;2023-07-09T23:22:00;21.54;87.58
64599;SHT31;51008;51.504;11.548;2023-07-09T23:27:01;21.48;87.97
64599;SHT31;51008;51.504;11.548;2023-07-09T23:32:02;21.47;88.22
64599;SHT31;51008;51.504;11.548;2023-07-09T23:37:03;21.29;89.08
64599;SHT31;51008;51.504;11.548;2023-07-09T23:42:18;21.27;88.83
64599;SHT31;51008;51.504;11.548;2023-07-09T23:47:23;21.26;88.03
64599;SHT31;51008;51.504;11.548;2023-07-09T23:52:24;21.18;88.75
64599;SHT31;51008;51.504;11.548;2023-07-09T23:57:25;21.06;89.08
